Webbers Falls, Oklahoma
Current Conditions -  °F | °C
As of 12:15 PM on Thursday 29 Jan 2015 (Local Time) from KGZL Reporting Station
Clear Clear  
Wind Chill: 54°   Ceiling: Unl
Heat Index: 54°   Visibility: 10mi
Dew Point: 27°   Wind: 23mph
Humidity: 35%   Direction: 340°NNW
Pressure: 30.35"   Gusts: 31mph
Location:  35.51°N, 95.13°W
Report Text: KGZL 291815Z AUTO 34020G27KT 10SM CLR 12/M03 A3035 RMK AO2
Loading
Personal Weather Stations






























Interactive Weather Map New forecast layout! Learn more

10-Day Weather Forecast

Advertisements
Track Severe Weather on mobile